Time,TemperatureF,DewpointF,PressureIn,WindDirection,WindDirectionDegrees,WindSpeedMPH,WindSpeedGustMPH,Humidity,HourlyPrecipIn,Conditions,Clouds,dailyrainin,SoftwareType,DateUTC
2013-03-27 00:01:00,40.3,22.6,-100.00,ESE,115,2.3,4.9,49,0.00,,,0.00,WSDL version 423,2013-03-27 04:01:00,
2013-03-27 00:04:00,40.3,22.6,-100.00,ESE,118,0.4,4.9,49,0.00,,,0.00,WSDL version 423,2013-03-27 04:04:00,
2013-03-27 00:10:00,40.3,22.9,-100.00,SE,133,0.9,4.3,49,0.00,,,0.00,WSDL version 423,2013-03-27 04:10:00,
2013-03-27 00:13:00,40.1,22.5,-100.00,ESE,116,1.2,4.3,49,0.00,,,0.00,WSDL version 423,2013-03-27 04:13:00,
2013-03-27 00:19:00,39.8,22.2,-100.00,ESE,113,1.7,3.6,49,0.00,,,0.00,WSDL version 423,2013-03-27 04:19:00,
2013-03-27 00:25:00,39.7,22.2,-100.00,East,100,0.2,3.6,49,0.00,,,0.00,WSDL version 423,2013-03-27 04:25:00,
2013-03-27 00:31:00,39.4,22.1,-100.00,ESE,108,1.3,3.4,50,-99.99,,,-99.99,WSDL version 423,2013-03-27 04:31:00,
2013-03-27 00:37:00,39.4,22.3,-100.00,ESE,113,1.8,3.4,50,0.00,,,0.00,WSDL version 423,2013-03-27 04:37:00,
2013-03-27 00:43:00,39.4,22.7,-100.00,SE,135,2.9,5.4,51,0.00,,,0.00,WSDL version 423,2013-03-27 04:43:00,
2013-03-27 00:49:00,39.4,23.1,-100.00,ESE,115,1.7,5.4,52,0.00,,,0.00,WSDL version 423,2013-03-27 04:49:00,
2013-03-27 00:55:00,39.3,23.2,-100.00,ESE,121,2.7,5.6,53,0.00,,,0.00,WSDL version 423,2013-03-27 04:55:00,
2013-03-27 01:01:00,39.1,22.9,-100.00,ESE,105,2.1,5.6,52,-99.99,,,-99.99,WSDL version 423,2013-03-27 05:01:00,
2013-03-27 01:07:00,39.1,23.6,-100.00,SE,129,2.7,5.4,53,0.00,,,0.00,WSDL version 423,2013-03-27 05:07:00,
2013-03-27 01:13:00,39.0,23.5,-100.00,ESE,118,2.9,5.4,54,0.00,,,0.00,WSDL version 423,2013-03-27 05:13:00,
2013-03-27 01:18:00,39.0,23.7,-100.00,ESE,119,3.0,6.0,54,0.00,,,0.00,WSDL version 423,2013-03-27 05:18:00,
2013-03-27 01:24:00,38.8,23.8,-100.00,SE,138,2.5,6.0,54,0.00,,,0.00,WSDL version 423,2013-03-27 05:24:00,
2013-03-27 01:30:00,38.7,23.1,-100.00,ESE,115,2.6,5.6,53,0.00,,,0.00,WSDL version 423,2013-03-27 05:30:00,
2013-03-27 01:34:00,38.7,23.2,-100.00,SE,124,3.2,6.5,54,0.00,,,0.00,WSDL version 423,2013-03-27 05:34:00,
2013-03-27 01:39:00,38.7,23.5,-100.00,SE,141,2.2,6.5,54,0.00,,,0.00,WSDL version 423,2013-03-27 05:39:00,
2013-03-27 01:45:00,38.5,22.8,-100.00,ESE,118,1.8,4.3,53,0.00,,,0.00,WSDL version 423,2013-03-27 05:45:00,
2013-03-27 01:51:00,38.5,23.0,-100.00,East,101,2.6,5.8,54,0.00,,,0.00,WSDL version 423,2013-03-27 05:51:00,
2013-03-27 01:58:00,38.4,22.8,-100.00,ESE,118,1.7,5.8,53,0.00,,,0.00,WSDL version 423,2013-03-27 05:58:00,
2013-03-27 02:04:00,38.1,22.3,-100.00,ESE,113,1.8,4.0,53,0.00,,,0.00,WSDL version 423,2013-03-27 06:04:00,
2013-03-27 02:10:00,38.1,22.4,-100.00,SE,127,3.6,5.8,53,0.00,,,0.00,WSDL version 423,2013-03-27 06:10:00,
2013-03-27 02:15:00,38.1,22.5,-100.00,SE,146,2.5,6.3,53,0.00,,,0.00,WSDL version 423,2013-03-27 06:15:00,
2013-03-27 02:22:00,38.0,22.0,-100.00,SSE,148,3.2,6.0,52,0.00,,,0.00,WSDL version 423,2013-03-27 06:22:00,
2013-03-27 02:27:00,37.9,21.9,-100.00,East,98,2.5,6.0,52,0.00,,,0.00,WSDL version 423,2013-03-27 06:27:00,
2013-03-27 02:33:00,37.9,21.9,-100.00,SE,135,3.3,5.8,52,0.00,,,0.00,WSDL version 423,2013-03-27 06:33:00,
2013-03-27 02:41:00,37.9,21.9,-100.00,SE,125,3.2,5.8,52,0.00,,,0.00,WSDL version 423,2013-03-27 06:41:00,
2013-03-27 02:47:00,37.9,21.8,-100.00,SE,129,4.2,6.0,52,0.00,,,0.00,WSDL version 423,2013-03-27 06:47:00,
2013-03-27 02:53:00,37.9,21.4,-100.00,ESE,118,3.9,6.5,51,0.00,,,0.00,WSDL version 423,2013-03-27 06:53:00,
2013-03-27 02:59:00,37.7,21.2,-100.00,SE,138,3.0,6.5,51,0.00,,,0.00,WSDL version 423,2013-03-27 06:59:00,
2013-03-27 03:05:00,37.7,21.2,-100.00,ESE,109,3.2,7.8,51,0.00,,,0.00,WSDL version 423,2013-03-27 07:05:00,
2013-03-27 03:11:00,37.5,21.0,-100.00,SE,127,2.6,5.8,51,0.00,,,0.00,WSDL version 423,2013-03-27 07:11:00,
2013-03-27 03:17:00,37.4,20.9,-100.00,SE,128,3.7,7.2,51,0.00,,,0.00,WSDL version 423,2013-03-27 07:17:00,
2013-03-27 03:23:00,37.4,20.7,-100.00,ESE,107,3.4,7.2,50,0.00,,,0.00,WSDL version 423,2013-03-27 07:23:00,
2013-03-27 03:29:00,37.4,20.5,-100.00,SE,138,3.2,8.5,51,0.00,,,0.00,WSDL version 423,2013-03-27 07:29:00,
2013-03-27 03:35:00,37.4,20.5,-100.00,SE,140,3.9,8.5,50,0.00,,,0.00,WSDL version 423,2013-03-27 07:35:00,
2013-03-27 03:41:00,37.3,20.4,-100.00,SE,145,2.7,6.5,50,0.00,,,0.00,WSDL version 423,2013-03-27 07:41:00,
2013-03-27 03:47:00,37.1,20.2,-100.00,SE,143,2.7,4.3,50,0.00,,,0.00,WSDL version 423,2013-03-27 07:47:00,
2013-03-27 03:53:00,36.9,20.0,-100.00,East,86,2.5,4.3,50,0.00,,,0.00,WSDL version 423,2013-03-27 07:53:00,
2013-03-27 03:59:00,36.9,20.0,-100.00,ESE,118,1.9,4.7,50,0.00,,,0.00,WSDL version 423,2013-03-27 07:59:00,
2013-03-27 04:05:00,36.7,20.0,-100.00,ESE,113,3.9,6.3,51,0.00,,,0.00,WSDL version 423,2013-03-27 08:05:00,
2013-03-27 04:12:00,36.7,19.8,-100.00,ESE,120,2.6,7.2,50,0.00,,,0.00,WSDL version 423,2013-03-27 08:12:00,
2013-03-27 04:17:00,36.4,19.6,-100.00,ESE,118,3.0,7.2,50,0.00,,,0.00,WSDL version 423,2013-03-27 08:17:00,
2013-03-27 04:23:00,36.2,19.3,-100.00,SE,125,3.0,6.3,50,0.00,,,0.00,WSDL version 423,2013-03-27 08:23:00,
2013-03-27 04:29:00,36.1,19.3,-100.00,SE,132,2.6,5.8,50,0.00,,,0.00,WSDL version 423,2013-03-27 08:29:00,
2013-03-27 04:35:00,36.0,19.2,-100.00,ESE,120,2.9,4.7,50,0.00,,,0.00,WSDL version 423,2013-03-27 08:35:00,
2013-03-27 04:42:00,36.0,19.2,-100.00,ESE,118,3.0,6.0,50,0.00,,,0.00,WSDL version 423,2013-03-27 08:42:00,
2013-03-27 04:47:00,36.1,19.3,-100.00,SE,128,3.0,6.0,50,0.00,,,0.00,WSDL version 423,2013-03-27 08:47:00,
2013-03-27 04:53:00,36.1,19.3,-100.00,ESE,122,2.0,5.8,50,0.00,,,0.00,WSDL version 423,2013-03-27 08:53:00,
2013-03-27 04:59:00,36.1,19.3,-100.00,SE,125,3.2,5.8,50,0.00,,,0.00,WSDL version 423,2013-03-27 08:59:00,
2013-03-27 05:05:00,36.1,19.3,-100.00,SSE,148,1.5,5.8,50,0.00,,,0.00,WSDL version 423,2013-03-27 09:05:00,
2013-03-27 05:11:00,36.2,19.4,-100.00,ESE,105,3.5,5.4,50,0.00,,,0.00,WSDL version 423,2013-03-27 09:11:00,
2013-03-27 05:17:00,36.1,19.3,-100.00,ESE,113,2.5,7.6,50,0.00,,,0.00,WSDL version 423,2013-03-27 09:17:00,
2013-03-27 05:23:00,35.9,19.1,-100.00,ESE,115,2.7,6.3,50,0.00,,,0.00,WSDL version 423,2013-03-27 09:23:00,
2013-03-27 05:29:00,35.8,18.9,-100.00,SE,146,1.3,6.3,50,0.00,,,0.00,WSDL version 423,2013-03-27 09:29:00,
2013-03-27 05:35:00,35.6,18.8,-100.00,ESE,121,2.6,4.9,50,0.00,,,0.00,WSDL version 423,2013-03-27 09:35:00,
2013-03-27 05:41:00,35.6,18.8,-100.00,ESE,118,2.7,5.6,50,0.00,,,0.00,WSDL version 423,2013-03-27 09:41:00,
2013-03-27 05:47:00,35.4,18.8,-100.00,ESE,118,2.1,4.3,51,0.00,,,0.00,WSDL version 423,2013-03-27 09:47:00,
2013-03-27 05:53:00,35.3,18.8,-100.00,ESE,107,2.4,3.4,51,0.00,,,0.00,WSDL version 423,2013-03-27 09:53:00,
2013-03-27 05:59:00,35.1,18.5,-100.00,East,95,1.4,4.0,50,0.00,,,0.00,WSDL version 423,2013-03-27 09:59:00,
2013-03-27 06:05:00,34.8,18.1,-100.00,ESE,104,0.3,4.0,50,0.00,,,0.00,WSDL version 423,2013-03-27 10:05:00,
2013-03-27 06:13:00,34.5,18.0,-100.00,SE,138,2.3,3.8,51,0.00,,,0.00,WSDL version 423,2013-03-27 10:13:00,
2013-03-27 06:19:00,34.5,18.3,-100.00,ESE,121,1.2,4.0,51,0.00,,,0.00,WSDL version 423,2013-03-27 10:19:00,
2013-03-27 06:25:00,34.6,18.4,-100.00,ESE,123,1.5,4.0,51,0.00,,,0.00,WSDL version 423,2013-03-27 10:25:00,
2013-03-27 06:31:00,34.7,18.4,-100.00,ESE,108,2.3,5.4,51,0.00,,,0.00,WSDL version 423,2013-03-27 10:31:00,
2013-03-27 06:37:00,34.7,18.4,-100.00,East,101,2.2,4.0,51,0.00,,,0.00,WSDL version 423,2013-03-27 10:37:00,
2013-03-27 06:43:00,34.7,18.4,-100.00,ESE,110,1.1,4.0,51,0.00,,,0.00,WSDL version 423,2013-03-27 10:43:00,
2013-03-27 06:51:00,34.7,18.5,-100.00,SE,124,1.9,4.7,51,0.00,,,0.00,WSDL version 423,2013-03-27 10:51:00,
2013-03-27 06:57:00,34.8,18.7,-100.00,ESE,121,1.8,4.7,52,0.00,,,0.00,WSDL version 423,2013-03-27 10:57:00,
2013-03-27 07:03:00,35.1,19.2,-100.00,SE,127,2.5,4.7,52,0.00,,,0.00,WSDL version 423,2013-03-27 11:03:00,
2013-03-27 07:09:00,35.3,19.4,-100.00,SE,124,2.3,4.0,52,0.00,,,0.00,WSDL version 423,2013-03-27 11:09:00,
2013-03-27 07:15:00,35.5,19.6,-100.00,SE,143,3.4,5.4,52,0.00,,,0.00,WSDL version 423,2013-03-27 11:15:00,
2013-03-27 07:21:00,35.7,19.8,-100.00,ESE,118,2.8,5.4,52,0.00,,,0.00,WSDL version 423,2013-03-27 11:21:00,
2013-03-27 07:27:00,35.8,19.9,-100.00,SE,124,3.4,6.0,52,0.00,,,0.00,WSDL version 423,2013-03-27 11:27:00,
2013-03-27 07:33:00,36.1,20.2,-100.00,ESE,123,3.4,8.1,52,0.00,,,0.00,WSDL version 423,2013-03-27 11:33:00,
2013-03-27 07:39:00,36.3,20.4,-100.00,ESE,118,4.1,6.5,52,0.00,,,0.00,WSDL version 423,2013-03-27 11:39:00,
2013-03-27 07:45:00,36.6,20.7,-100.00,ESE,122,4.4,7.4,52,0.00,,,0.00,WSDL version 423,2013-03-27 11:45:00,
2013-03-27 07:51:00,36.8,20.9,-100.00,SE,138,3.2,7.4,52,0.00,,,0.00,WSDL version 423,2013-03-27 11:51:00,
2013-03-27 07:57:00,37.0,21.1,-100.00,SE,143,3.1,6.5,52,0.00,,,0.00,WSDL version 423,2013-03-27 11:57:00,
2013-03-27 08:03:00,37.2,21.1,-100.00,East,90,3.8,6.5,51,0.00,,,0.00,WSDL version 423,2013-03-27 12:03:00,
2013-03-27 08:09:00,37.5,21.0,-100.00,ESE,115,4.1,6.7,51,0.00,,,0.00,WSDL version 423,2013-03-27 12:09:00,
2013-03-27 08:15:00,37.9,21.6,-100.00,SE,133,4.3,6.7,51,0.00,,,0.00,WSDL version 423,2013-03-27 12:15:00,
2013-03-27 08:21:00,38.2,22.0,-100.00,East,96,4.1,10.5,52,0.00,,,0.00,WSDL version 423,2013-03-27 12:21:00,
2013-03-27 08:27:00,38.6,22.5,-100.00,SE,141,4.1,10.5,52,0.00,,,0.00,WSDL version 423,2013-03-27 12:27:00,
2013-03-27 08:33:00,38.9,22.8,-100.00,SSE,150,4.2,10.7,52,0.00,,,0.00,WSDL version 423,2013-03-27 12:33:00,
2013-03-27 08:39:00,39.3,22.7,-100.00,SE,133,4.0,8.1,51,0.00,,,0.00,WSDL version 423,2013-03-27 12:39:00,
2013-03-27 08:45:00,39.7,23.0,-100.00,SE,132,3.6,9.6,51,0.00,,,0.00,WSDL version 423,2013-03-27 12:45:00,
2013-03-27 08:51:00,40.1,23.5,-100.00,SE,143,4.2,9.8,51,0.00,,,0.00,WSDL version 423,2013-03-27 12:51:00,
2013-03-27 08:57:00,40.5,23.8,-100.00,SE,133,5.1,10.5,51,0.00,,,0.00,WSDL version 423,2013-03-27 12:57:00,
2013-03-27 09:03:00,40.9,24.2,-100.00,SE,129,5.8,11.0,51,0.00,,,0.00,WSDL version 423,2013-03-27 13:03:00,
2013-03-27 09:09:00,41.4,24.6,-100.00,ESE,123,3.8,11.0,51,0.00,,,0.00,WSDL version 423,2013-03-27 13:09:00,
2013-03-27 09:15:00,42.0,24.7,-100.00,ESE,123,3.9,8.7,50,0.00,,,0.00,WSDL version 423,2013-03-27 13:15:00,
2013-03-27 09:21:00,42.3,24.5,-100.00,SE,141,5.4,10.1,49,0.00,,,0.00,WSDL version 423,2013-03-27 13:21:00,
2013-03-27 09:27:00,42.7,24.6,-100.00,ESE,107,4.5,10.5,48,0.00,,,0.00,WSDL version 423,2013-03-27 13:27:00,
2013-03-27 09:33:00,43.1,24.7,-100.00,SE,125,5.6,10.5,48,0.00,,,0.00,WSDL version 423,2013-03-27 13:33:00,
2013-03-27 09:39:00,43.5,25.1,-100.00,SE,130,5.1,10.3,48,0.00,,,0.00,WSDL version 423,2013-03-27 13:39:00,
2013-03-27 09:45:00,43.7,25.2,-100.00,SSE,148,3.8,8.7,47,0.00,,,0.00,WSDL version 423,2013-03-27 13:45:00,
2013-03-27 09:51:00,43.9,25.0,-100.00,SE,133,4.0,9.8,47,0.00,,,0.00,WSDL version 423,2013-03-27 13:51:00,
2013-03-27 09:57:00,44.3,25.1,-100.00,ESE,123,4.9,9.8,47,0.00,,,0.00,WSDL version 423,2013-03-27 13:57:00,
2013-03-27 10:03:00,44.7,25.0,-100.00,ESE,113,3.9,10.7,45,0.00,,,0.00,WSDL version 423,2013-03-27 14:03:00,
2013-03-27 10:09:00,45.1,25.3,-100.00,SE,141,3.5,10.7,46,0.00,,,0.00,WSDL version 423,2013-03-27 14:09:00,
2013-03-27 10:15:00,45.0,24.2,-100.00,ESE,118,5.1,8.5,44,0.00,,,0.00,WSDL version 423,2013-03-27 14:15:00,
2013-03-27 10:21:00,45.3,24.9,-100.00,East,101,3.7,10.5,45,0.00,,,0.00,WSDL version 423,2013-03-27 14:21:00,
2013-03-27 10:27:00,45.3,24.7,-100.00,SE,127,5.2,10.5,44,0.00,,,0.00,WSDL version 423,2013-03-27 14:27:00,
2013-03-27 10:33:00,45.8,25.2,-100.00,SSE,151,4.2,8.9,44,0.00,,,0.00,WSDL version 423,2013-03-27 14:33:00,
2013-03-27 10:39:00,46.3,25.0,-100.00,SE,141,5.4,8.9,43,0.00,,,0.00,WSDL version 423,2013-03-27 14:39:00,
2013-03-27 10:45:00,46.3,24.8,-100.00,SE,141,5.1,10.5,43,0.00,,,0.00,WSDL version 423,2013-03-27 14:45:00,
2013-03-27 10:51:00,46.4,24.6,-100.00,ESE,104,3.5,7.6,42,0.00,,,0.00,WSDL version 423,2013-03-27 14:51:00,
2013-03-27 10:57:00,46.8,25.1,-100.00,SSE,158,3.5,10.1,43,0.00,,,0.00,WSDL version 423,2013-03-27 14:57:00,
2013-03-27 11:03:00,47.4,25.7,-100.00,ESE,110,3.6,7.4,41,0.00,,,0.00,WSDL version 423,2013-03-27 15:03:00,
2013-03-27 11:09:00,47.5,25.0,-100.00,SSE,163,2.3,12.5,41,0.00,,,0.00,WSDL version 423,2013-03-27 15:09:00,
2013-03-27 11:15:00,47.7,25.0,-100.00,SE,132,4.6,10.5,40,0.00,,,0.00,WSDL version 423,2013-03-27 15:15:00,
2013-03-27 11:21:00,48.0,25.1,-100.00,SE,145,4.6,10.5,41,0.00,,,0.00,WSDL version 423,2013-03-27 15:21:00,
2013-03-27 11:27:00,47.8,25.1,-100.00,SE,135,3.2,10.3,41,0.00,,,0.00,WSDL version 423,2013-03-27 15:27:00,
2013-03-27 11:33:00,48.1,25.3,-100.00,East,90,3.1,6.3,40,0.00,,,0.00,WSDL version 423,2013-03-27 15:33:00,
2013-03-27 11:39:00,48.7,25.9,-100.00,SE,140,2.0,6.3,41,0.00,,,0.00,WSDL version 423,2013-03-27 15:39:00,
2013-03-27 11:45:00,48.9,25.2,-100.00,SE,130,3.5,6.7,38,0.00,,,0.00,WSDL version 423,2013-03-27 15:45:00,
2013-03-27 11:51:00,49.2,25.2,-100.00,ESE,119,4.3,8.1,38,0.00,,,0.00,WSDL version 423,2013-03-27 15:51:00,
2013-03-27 11:57:00,48.8,24.5,-100.00,ESE,118,3.8,8.5,39,0.00,,,0.00,WSDL version 423,2013-03-27 15:57:00,
2013-03-27 12:03:00,49.4,25.4,-100.00,ESE,115,3.9,8.1,39,0.00,,,0.00,WSDL version 423,2013-03-27 16:03:00,
2013-03-27 12:09:00,48.8,24.4,-100.00,SE,127,4.4,8.1,38,0.00,,,0.00,WSDL version 423,2013-03-27 16:09:00,
2013-03-27 12:15:00,49.6,25.2,-100.00,ESE,110,5.0,7.8,38,0.00,,,0.00,WSDL version 423,2013-03-27 16:15:00,
2013-03-27 12:21:00,49.4,24.7,-100.00,East,90,4.1,8.1,37,0.00,,,0.00,WSDL version 423,2013-03-27 16:21:00,
2013-03-27 12:27:00,49.8,24.8,-100.00,East,98,4.4,8.1,38,0.00,,,0.00,WSDL version 423,2013-03-27 16:27:00,
2013-03-27 12:33:00,50.2,24.8,-100.00,East,79,2.4,10.1,37,0.00,,,0.00,WSDL version 423,2013-03-27 16:33:00,
2013-03-27 12:39:00,50.8,25.5,-100.00,ESE,113,3.5,10.1,37,0.00,,,0.00,WSDL version 423,2013-03-27 16:39:00,
2013-03-27 12:45:00,51.7,25.5,-100.00,SE,128,4.7,9.8,35,0.00,,,0.00,WSDL version 423,2013-03-27 16:45:00,
2013-03-27 12:51:00,51.0,24.3,-100.00,ESE,116,3.9,9.8,35,0.00,,,0.00,WSDL version 423,2013-03-27 16:51:00,
2013-03-27 12:57:00,50.6,24.0,-100.00,ESE,115,3.2,8.7,35,0.00,,,0.00,WSDL version 423,2013-03-27 16:57:00,
2013-03-27 13:03:00,50.6,23.3,-100.00,ESE,118,2.6,7.4,35,0.00,,,0.00,WSDL version 423,2013-03-27 17:03:00,
2013-03-27 13:09:00,50.9,23.8,-100.00,SE,138,5.5,11.0,34,0.00,,,0.00,WSDL version 423,2013-03-27 17:09:00,
2013-03-27 13:15:00,51.6,22.9,-100.00,ESE,110,6.4,9.8,31,0.00,,,0.00,WSDL version 423,2013-03-27 17:15:00,
2013-03-27 13:21:00,52.2,23.4,-100.00,East,93,4.9,9.8,33,0.00,,,0.00,WSDL version 423,2013-03-27 17:21:00,
2013-03-27 13:27:00,51.9,23.4,-100.00,NW,304,4.5,10.3,33,0.00,,,0.00,WSDL version 423,2013-03-27 17:27:00,
2013-03-27 13:33:00,50.9,22.9,-100.00,SSE,148,5.8,10.3,34,0.00,,,0.00,WSDL version 423,2013-03-27 17:33:00,
2013-03-27 13:39:00,50.3,22.9,-100.00,SW,236,3.2,8.7,35,0.00,,,0.00,WSDL version 423,2013-03-27 17:39:00,
2013-03-27 13:45:00,49.8,22.7,-100.00,ESE,110,3.6,8.7,34,0.00,,,0.00,WSDL version 423,2013-03-27 17:45:00,
2013-03-27 13:51:00,49.6,22.8,-100.00,SSE,160,2.9,6.3,35,0.00,,,0.00,WSDL version 423,2013-03-27 17:51:00,
2013-03-27 13:57:00,49.4,22.8,-100.00,SE,135,3.3,6.3,35,0.00,,,0.00,WSDL version 423,2013-03-27 17:57:00,
2013-03-27 14:03:00,49.5,23.6,-100.00,SE,125,2.4,7.8,36,0.00,,,0.00,WSDL version 423,2013-03-27 18:03:00,
2013-03-27 14:09:00,50.7,23.1,-100.00,SE,124,2.4,7.4,34,0.00,,,0.00,WSDL version 423,2013-03-27 18:09:00,
2013-03-27 14:15:00,52.1,25.4,-100.00,ESE,116,2.7,7.4,36,0.00,,,0.00,WSDL version 423,2013-03-27 18:15:00,
2013-03-27 14:23:00,52.4,23.7,-100.00,SSE,149,2.9,7.6,32,0.00,,,0.00,WSDL version 423,2013-03-27 18:23:00,
2013-03-27 14:31:00,51.3,22.3,-100.00,South,190,2.2,4.9,32,0.00,,,0.00,WSDL version 423,2013-03-27 18:31:00,
2013-03-27 14:38:00,50.7,22.6,-100.00,SE,143,2.6,4.3,33,0.00,,,0.00,WSDL version 423,2013-03-27 18:38:00,
2013-03-27 14:44:00,50.8,22.2,-100.00,South,173,1.1,4.3,34,0.00,,,0.00,WSDL version 423,2013-03-27 18:44:00,
2013-03-27 14:50:00,52.6,24.4,-100.00,East,95,4.3,6.5,32,0.00,,,0.00,WSDL version 423,2013-03-27 18:50:00,
2013-03-27 14:56:00,53.0,22.3,-100.00,SE,135,3.9,7.2,29,0.00,,,0.00,WSDL version 423,2013-03-27 18:56:00,
2013-03-27 15:02:00,52.1,19.5,-100.00,SE,133,5.5,10.5,27,0.00,,,0.00,WSDL version 423,2013-03-27 19:02:00,
2013-03-27 15:08:00,52.6,20.8,-100.00,SE,138,3.1,10.5,29,0.00,,,0.00,WSDL version 423,2013-03-27 19:08:00,
2013-03-27 15:14:00,52.9,20.4,-100.00,ESE,105,4.0,6.5,27,0.00,,,0.00,WSDL version 423,2013-03-27 19:14:00,
2013-03-27 15:20:00,51.8,19.4,-100.00,SE,124,3.6,7.6,28,0.00,,,0.00,WSDL version 423,2013-03-27 19:20:00,
2013-03-27 15:26:00,51.8,19.5,-100.00,SE,145,2.0,7.6,28,0.00,,,0.00,WSDL version 423,2013-03-27 19:26:00,
2013-03-27 15:32:00,52.9,20.1,-100.00,ESE,123,6.0,12.5,27,0.00,,,0.00,WSDL version 423,2013-03-27 19:32:00,
2013-03-27 15:38:00,53.3,20.4,-100.00,East,84,6.3,12.5,27,0.00,,,0.00,WSDL version 423,2013-03-27 19:38:00,
2013-03-27 15:44:00,53.7,20.1,-100.00,SE,143,5.1,11.2,26,0.00,,,0.00,WSDL version 423,2013-03-27 19:44:00,
2013-03-27 15:50:00,53.5,20.0,-100.00,ESE,115,5.0,8.5,27,0.00,,,0.00,WSDL version 423,2013-03-27 19:50:00,
2013-03-27 15:56:00,53.3,20.2,-100.00,ESE,115,6.7,12.5,27,0.00,,,0.00,WSDL version 423,2013-03-27 19:56:00,
2013-03-27 16:02:00,53.5,20.3,-100.00,SSE,166,4.4,12.1,27,0.00,,,0.00,WSDL version 423,2013-03-27 20:02:00,
2013-03-27 16:08:00,53.4,20.2,-100.00,SE,135,4.5,12.1,27,0.00,,,0.00,WSDL version 423,2013-03-27 20:08:00,
2013-03-27 16:14:00,53.6,19.9,-100.00,SE,143,5.4,8.9,27,0.00,,,0.00,WSDL version 423,2013-03-27 20:14:00,
2013-03-27 16:20:00,54.3,20.7,-100.00,SSE,152,3.5,7.6,26,0.00,,,0.00,WSDL version 423,2013-03-27 20:20:00,
2013-03-27 16:26:00,53.9,20.2,-100.00,SE,133,3.3,7.2,27,0.00,,,0.00,WSDL version 423,2013-03-27 20:26:00,
2013-03-27 16:32:00,53.2,20.0,-100.00,SSE,148,3.3,7.6,27,0.00,,,0.00,WSDL version 423,2013-03-27 20:32:00,
2013-03-27 16:38:00,52.5,19.5,-100.00,SE,124,3.0,8.1,27,0.00,,,0.00,WSDL version 423,2013-03-27 20:38:00,
2013-03-27 16:44:00,52.9,20.0,-100.00,SSE,160,2.9,5.6,27,0.00,,,0.00,WSDL version 423,2013-03-27 20:44:00,
2013-03-27 16:50:00,52.3,19.5,-100.00,SE,128,4.0,7.8,27,0.00,,,0.00,WSDL version 423,2013-03-27 20:50:00,
2013-03-27 16:56:00,52.1,19.8,-100.00,SSE,158,2.6,7.8,28,0.00,,,0.00,WSDL version 423,2013-03-27 20:56:00,
2013-03-27 17:02:00,53.0,20.0,-100.00,SE,129,4.8,7.4,27,0.00,,,0.00,WSDL version 423,2013-03-27 21:02:00,
2013-03-27 17:08:00,53.5,20.4,-100.00,SE,125,6.3,12.1,27,0.00,,,0.00,WSDL version 423,2013-03-27 21:08:00,
2013-03-27 17:14:00,53.9,20.2,-100.00,ESE,123,5.5,12.1,26,0.00,,,0.00,WSDL version 423,2013-03-27 21:14:00,
2013-03-27 17:20:00,54.1,20.5,-100.00,ESE,104,3.7,9.6,27,0.00,,,0.00,WSDL version 423,2013-03-27 21:20:00,
2013-03-27 17:26:00,54.1,20.8,-100.00,East,93,3.7,10.1,27,0.00,,,0.00,WSDL version 423,2013-03-27 21:26:00,
2013-03-27 17:32:00,53.6,20.7,-100.00,East,98,5.9,13.0,28,0.00,,,0.00,WSDL version 423,2013-03-27 21:32:00,
2013-03-27 17:38:00,53.0,20.6,-100.00,SE,130,7.0,15.4,28,0.00,,,0.00,WSDL version 423,2013-03-27 21:38:00,
2013-03-27 17:44:00,52.1,20.5,-100.00,SE,135,6.3,15.4,29,0.00,,,0.00,WSDL version 423,2013-03-27 21:44:00,
2013-03-27 17:50:00,51.5,21.1,-100.00,SE,135,3.1,14.5,30,0.00,,,0.00,WSDL version 423,2013-03-27 21:50:00,
2013-03-27 17:56:00,51.0,21.4,-100.00,ESE,110,7.6,11.0,31,0.00,,,0.00,WSDL version 423,2013-03-27 21:56:00,
2013-03-27 18:02:00,50.7,21.9,-100.00,SSE,149,5.8,11.0,32,0.00,,,0.00,WSDL version 423,2013-03-27 22:02:00,
2013-03-27 18:08:00,50.5,22.5,-100.00,SE,129,6.6,10.1,33,0.00,,,0.00,WSDL version 423,2013-03-27 22:08:00,
2013-03-27 18:14:00,50.2,22.3,-100.00,ESE,108,5.1,15.2,33,0.00,,,0.00,WSDL version 423,2013-03-27 22:14:00,
2013-03-27 18:20:00,50.2,22.2,-100.00,SSE,153,5.3,15.2,33,0.00,,,0.00,WSDL version 423,2013-03-27 22:20:00,
2013-03-27 18:26:00,50.0,21.8,-100.00,ESE,107,4.8,10.7,32,0.00,,,0.00,WSDL version 423,2013-03-27 22:26:00,
2013-03-27 18:32:00,49.7,21.1,-100.00,SE,143,5.2,10.7,32,0.00,,,0.00,WSDL version 423,2013-03-27 22:32:00,
2013-03-27 18:38:00,49.5,21.2,-100.00,SE,138,5.3,9.2,33,0.00,,,0.00,WSDL version 423,2013-03-27 22:38:00,
2013-03-27 18:44:00,49.2,22.0,-100.00,SE,138,4.1,9.4,35,0.00,,,0.00,WSDL version 423,2013-03-27 22:44:00,
2013-03-27 18:50:00,48.9,22.4,-100.00,ESE,118,3.2,9.4,35,0.00,,,0.00,WSDL version 423,2013-03-27 22:50:00,
2013-03-27 18:56:00,48.3,23.1,-100.00,ESE,115,6.4,12.3,37,0.00,,,0.00,WSDL version 423,2013-03-27 22:56:00,
2013-03-27 19:02:00,47.7,23.5,-100.00,SE,135,3.0,12.3,38,0.00,,,0.00,WSDL version 423,2013-03-27 23:02:00,
2013-03-27 19:08:00,47.4,23.6,-100.00,SE,124,3.1,7.6,39,0.00,,,0.00,WSDL version 423,2013-03-27 23:08:00,
2013-03-27 19:14:00,47.0,23.7,-100.00,ESE,108,5.7,11.2,40,0.00,,,0.00,WSDL version 423,2013-03-27 23:14:00,
2013-03-27 19:20:00,46.7,23.7,-100.00,ESE,123,4.7,11.2,40,0.00,,,0.00,WSDL version 423,2013-03-27 23:20:00,
2013-03-27 19:26:00,46.4,23.7,-100.00,SE,132,4.4,10.5,41,0.00,,,0.00,WSDL version 423,2013-03-27 23:26:00,
2013-03-27 19:32:00,46.2,23.9,-100.00,SE,132,3.7,10.5,41,0.00,,,0.00,WSDL version 423,2013-03-27 23:32:00,
2013-03-27 19:38:00,46.0,23.7,-100.00,SE,125,3.4,7.4,41,0.00,,,0.00,WSDL version 423,2013-03-27 23:38:00,
2013-03-27 19:44:00,46.0,23.8,-100.00,SSE,153,3.6,10.5,41,0.00,,,0.00,WSDL version 423,2013-03-27 23:44:00,
2013-03-27 19:50:00,46.0,23.7,-100.00,SE,131,4.0,8.1,41,0.00,,,0.00,WSDL version 423,2013-03-27 23:50:00,
2013-03-27 19:56:00,46.0,23.4,-100.00,SE,132,2.9,8.1,41,0.00,,,0.00,WSDL version 423,2013-03-27 23:56:00,
2013-03-27 20:02:00,46.0,23.4,-100.00,ESE,115,2.5,6.3,40,0.00,,,0.00,WSDL version 423,2013-03-28 00:02:00,
2013-03-27 20:08:00,46.0,23.2,-100.00,ESE,121,2.3,6.3,40,0.00,,,0.00,WSDL version 423,2013-03-28 00:08:00,
2013-03-27 20:14:00,46.0,23.2,-100.00,SE,143,2.6,7.2,40,0.00,,,0.00,WSDL version 423,2013-03-28 00:14:00,
2013-03-27 20:20:00,45.9,22.9,-100.00,ESE,115,2.6,4.7,40,0.00,,,0.00,WSDL version 423,2013-03-28 00:20:00,
2013-03-27 20:26:00,45.5,22.6,-100.00,SSE,158,2.5,6.3,40,0.00,,,0.00,WSDL version 423,2013-03-28 00:26:00,
2013-03-27 20:32:00,45.5,23.1,-100.00,ESE,121,3.1,6.5,41,0.00,,,0.00,WSDL version 423,2013-03-28 00:32:00,
2013-03-27 20:38:00,45.3,23.0,-100.00,East,85,2.7,8.1,41,0.00,,,0.00,WSDL version 423,2013-03-28 00:38:00,
2013-03-27 20:44:00,45.1,23.0,-100.00,SE,145,4.4,12.5,41,0.00,,,0.00,WSDL version 423,2013-03-28 00:44:00,
2013-03-27 20:50:00,45.0,23.2,-100.00,SE,129,5.5,12.5,42,0.00,,,0.00,WSDL version 423,2013-03-28 00:50:00,
2013-03-27 20:56:00,45.0,23.3,-100.00,SE,127,3.7,9.8,42,0.00,,,0.00,WSDL version 423,2013-03-28 00:56:00,
2013-03-27 21:02:00,44.8,23.3,-100.00,SE,130,4.5,7.6,42,0.00,,,0.00,WSDL version 423,2013-03-28 01:02:00,
2013-03-27 21:08:00,44.7,23.6,-100.00,East,95,4.3,7.6,43,0.00,,,0.00,WSDL version 423,2013-03-28 01:08:00,
2013-03-27 21:14:00,44.5,23.3,-100.00,SE,132,4.3,7.4,43,0.00,,,0.00,WSDL version 423,2013-03-28 01:14:00,
2013-03-27 21:20:00,44.2,23.5,-100.00,ESE,115,3.2,6.3,44,0.00,,,0.00,WSDL version 423,2013-03-28 01:20:00,
2013-03-27 21:26:00,44.2,24.3,-100.00,ESE,120,4.2,9.6,45,0.00,,,0.00,WSDL version 423,2013-03-28 01:26:00,
2013-03-27 21:32:00,44.1,24.2,-100.00,ESE,121,3.4,10.1,45,0.00,,,0.00,WSDL version 423,2013-03-28 01:32:00,
2013-03-27 21:38:00,43.9,24.4,-100.00,SE,138,4.1,7.8,46,0.00,,,0.00,WSDL version 423,2013-03-28 01:38:00,
2013-03-27 21:44:00,43.8,24.7,-100.00,SSE,153,4.5,7.8,47,0.00,,,0.00,WSDL version 423,2013-03-28 01:44:00,
2013-03-27 21:50:00,43.6,24.3,-100.00,ESE,115,4.9,7.2,47,0.00,,,0.00,WSDL version 423,2013-03-28 01:50:00,
2013-03-27 21:56:00,43.4,24.4,-100.00,SE,129,3.0,7.2,48,0.00,,,0.00,WSDL version 423,2013-03-28 01:56:00,
2013-03-27 22:02:00,43.3,24.5,-100.00,SE,135,3.0,7.6,47,0.00,,,0.00,WSDL version 423,2013-03-28 02:02:00,
2013-03-27 22:08:00,43.2,24.9,-100.00,East,98,4.0,7.4,48,0.00,,,0.00,WSDL version 423,2013-03-28 02:08:00,
2013-03-27 22:14:00,43.0,24.9,-100.00,SE,143,3.5,8.5,49,0.00,,,0.00,WSDL version 423,2013-03-28 02:14:00,
2013-03-27 22:20:00,42.9,25.1,-100.00,ESE,118,3.6,8.7,49,0.00,,,0.00,WSDL version 423,2013-03-28 02:20:00,
2013-03-27 22:26:00,42.8,25.5,-100.00,ESE,118,5.2,10.7,51,0.00,,,0.00,WSDL version 423,2013-03-28 02:26:00,
2013-03-27 22:32:00,42.7,25.9,-100.00,SE,132,5.5,9.6,52,0.00,,,0.00,WSDL version 423,2013-03-28 02:32:00,
2013-03-27 22:38:00,42.4,25.5,-100.00,ESE,109,3.5,8.7,51,0.00,,,0.00,WSDL version 423,2013-03-28 02:38:00,
2013-03-27 22:44:00,42.2,25.3,-100.00,ESE,120,3.8,7.2,50,0.00,,,0.00,WSDL version 423,2013-03-28 02:44:00,
2013-03-27 22:50:00,42.0,25.3,-100.00,ESE,108,3.3,7.2,51,0.00,,,0.00,WSDL version 423,2013-03-28 02:50:00,
2013-03-27 22:56:00,41.8,25.4,-100.00,ESE,113,4.3,6.0,52,0.00,,,0.00,WSDL version 423,2013-03-28 02:56:00,
2013-03-27 23:02:00,41.7,25.0,-100.00,SE,143,2.7,6.5,51,0.00,,,0.00,WSDL version 423,2013-03-28 03:02:00,
2013-03-27 23:08:00,41.5,24.8,-100.00,SE,146,3.6,6.3,51,0.00,,,0.00,WSDL version 423,2013-03-28 03:08:00,
2013-03-27 23:14:00,41.5,25.3,-100.00,ESE,115,5.1,10.5,53,0.00,,,0.00,WSDL version 423,2013-03-28 03:14:00,
2013-03-27 23:20:00,41.5,25.3,-100.00,ESE,104,3.8,10.5,52,0.00,,,0.00,WSDL version 423,2013-03-28 03:20:00,
2013-03-27 23:26:00,41.3,25.0,-100.00,SE,128,3.3,7.6,53,0.00,,,0.00,WSDL version 423,2013-03-28 03:26:00,
2013-03-27 23:32:00,41.2,25.1,-100.00,SSE,165,5.3,7.6,53,0.00,,,0.00,WSDL version 423,2013-03-28 03:32:00,
2013-03-27 23:38:00,41.2,25.1,-100.00,SE,125,3.4,7.6,52,0.00,,,0.00,WSDL version 423,2013-03-28 03:38:00,
2013-03-27 23:44:00,41.0,25.2,-100.00,SE,129,2.7,7.8,53,0.00,,,0.00,WSDL version 423,2013-03-28 03:44:00,
2013-03-27 23:50:00,40.9,25.0,-100.00,SSE,150,2.6,6.3,52,0.00,,,0.00,WSDL version 423,2013-03-28 03:50:00,
2013-03-27 23:56:00,40.7,25.0,-100.00,East,93,1.8,7.4,53,0.00,,,0.00,WSDL version 423,2013-03-28 03:56:00,